Buoy 21539

sailwx.info

Track history (hours):
 
Tides and Currents Weather Stations Pressure Air Temp Water Temp Dewpoint Dewpoint Depression Visibility Wind Speed Wind Dir Waves Ship Positions

Drifting buoy 21539

Last reported at 2015-Aug-29 10:10 UTC. Time now 2015-Aug-29 12:43 UTC.
Position N 47°06' W 171°38'.

Barometer 1029.3 mb
Water temperature 13.4 ° C

Date/timePositionNaut miles runAvg speedWind from/ knotsBaromVisibWave heightAir tempDewpointWater temp
2015-Aug-29 10:10N 47°06' W 171°38'1 0.1 1029.3 13.4
2015-Aug-29 04:10N 47°07' W 171°38'0 0.1 1030.5 13.5
2015-Aug-29 02:10N 47°07' W 171°38'0 0.0 1031.3 13.5
2015-Aug-29 01:10N 47°07' W 171°38'2 0.2 1032.0 13.5
2015-Aug-28 17:10N 47°05' W 171°39'1 0.2 1032.9 13.1
2015-Aug-28 13:10N 47°06' W 171°39'1 0.9 1033.8 13.2
2015-Aug-28 12:10N 47°06' W 171°40'1 0.2 1034.3 13.2
2015-Aug-28 07:10N 47°05' W 171°41'1 0.4 1034.0 13.2
2015-Aug-28 05:10N 47°05' W 171°40'0 0.4 1033.6 13.2
2015-Aug-28 04:10N 47°05' W 171°40'1 0.6 1033.7 13.3
2015-Aug-28 03:10N 47°05' W 171°39'1 0.7 1033.9 13.2
2015-Aug-28 02:10N 47°05' W 171°40'0 0.3 1033.6 13.2
2015-Aug-28 01:10N 47°05' W 171°40'0 0.3 1033.7 13.1
2015-Aug-28 00:10N 47°05' W 171°39'0 0.0 1033.7 13.1
2015-Aug-27 23:10N 47°05' W 171°39'1 0.5 1033.7 13.0
2015-Aug-27 22:10N 47°05' W 171°39'1 0.6 1034.3 12.9
2015-Aug-27 20:10N 47°05' W 171°40'0 0.0 1034.0 12.8
2015-Aug-27 17:10N 47°05' W 171°40'0 0.1 1033.2 12.8
2015-Aug-27 14:10N 47°05' W 171°40'0 0.4 1032.9 12.8
2015-Aug-27 13:10N 47°04' W 171°40'1 0.1 1033.1 12.8
2015-Aug-27 09:10N 47°04' W 171°39'0 0.5 1032.4 12.8
2015-Aug-27 08:10N 47°05' W 171°40'1 0.2 1032.0 12.8
2015-Aug-27 04:10N 47°05' W 171°39'3 0.7 1031.1 12.8
2015-Aug-27 00:10N 47°02' W 171°40'0 0.0 1031.1 12.8
2015-Aug-26 23:10N 47°02' W 171°40'0 0.1 1031.3 12.7
2015-Aug-26 17:10N 47°03' W 171°40'0 0.2 1029.9 12.6
2015-Aug-26 14:10N 47°03' W 171°40'1 0.1 1029.8 12.7
2015-Aug-26 02:10N 47°02' W 171°41'1 0.3 1028.2 12.7
2015-Aug-25 23:10N 47°01' W 171°40'1 0.3 1028.3 12.5
2015-Aug-25 19:10N 47°02' W 171°42'1 0.5 1027.7 12.4
2015-Aug-25 17:10N 47°01' W 171°42'1 0.1 1026.8 12.4
2015-Aug-25 11:10N 47°01' W 171°41'0 0.1 1027.4 12.4
2015-Aug-25 08:10N 47°01' W 171°41'1 0.1 1028.0 12.5
2015-Aug-25 03:10N 47°01' W 171°40'2 2.5 1026.8 12.5
2015-Aug-25 02:10N 46°59' W 171°43'2 0.1 1027.2 12.5
2015-Aug-24 12:10N 46°59' W 171°40'0 0.0 1028.9 12.3
2015-Aug-24 11:10N 46°59' W 171°40'1 0.1 1028.8 12.3
2015-Aug-24 02:10N 46°58' W 171°41'1 0.1 1029.2 12.3
2015-Aug-23 16:10N 46°58' W 171°43'2 1.0 1030.6 12.2
2015-Aug-23 14:10N 46°57' W 171°41'1 0.3 1031.2 12.2
2015-Aug-23 11:10N 46°57' W 171°40'0 0.1 1031.7 12.3
2015-Aug-23 08:10N 46°57' W 171°40'0 0.2 1031.8 12.3
2015-Aug-23 06:10N 46°57' W 171°40'1 0.6 1031.4 12.3
2015-Aug-23 05:10N 46°57' W 171°40'1 0.2 1031.5 12.3
2015-Aug-22 23:10N 46°56' W 171°39'0 0.1 1032.6 12.3
2015-Aug-22 16:10N 46°56' W 171°40'1 0.5 1032.4 12.3
2015-Aug-22 14:10N 46°56' W 171°41'5 0.8 1032.8 12.3
2015-Aug-22 08:10N 46°57' W 171°34'3 0.3 1033.4 12.3
2015-Aug-22 00:10N 46°55' W 171°37'0 0.0 1032.3 12.3
2015-Aug-21 23:10N 46°55' W 171°37'2 0.3 1032.2 12.3
2015-Aug-21 14:10N 46°55' W 171°34'1 0.1 1029.7 12.3
2015-Aug-21 09:10N 46°55' W 171°33'3 0.2 1028.7 12.4
2015-Aug-20 16:10N 46°57' W 171°28'0 0.0 1021.3 12.3
2015-Aug-20 15:10N 46°57' W 171°28'2 0.3 1021.2 12.3
2015-Aug-20 06:10N 46°59' W 171°30'1 0.7 1020.1 12.3
2015-Aug-20 05:10N 46°59' W 171°29'1 0.1 1019.8 12.3
2015-Aug-19 17:10N 46°58' W 171°30'0 0.4 1017.5 12.0
2015-Aug-19 16:10N 46°58' W 171°30'1 0.3 1016.9 12.0
2015-Aug-19 12:10N 46°58' W 171°32'   1016.1 12.0
Track history (hours):
 
Tides and Currents Weather Stations Pressure Air Temp Water Temp Dewpoint Dewpoint Depression Visibility Wind Speed Wind Dir Waves Ship Positions

Drifting buoy 21539

Last reported at 2015-Aug-29 10:10 UTC. Time now 2015-Aug-29 12:43 UTC.
Position N 47°06' W 171°38'.

Barometer 1029.3 mb
Water temperature 13.4 ° C

Date/timePositionNaut miles runAvg speedWind from/ knotsBaromVisibWave heightAir tempDewpointWater temp
2015-Aug-29 10:10N 47°06' W 171°38'1 0.1 1029.3 13.4
2015-Aug-29 04:10N 47°07' W 171°38'0 0.1 1030.5 13.5
2015-Aug-29 02:10N 47°07' W 171°38'0 0.0 1031.3 13.5
2015-Aug-29 01:10N 47°07' W 171°38'2 0.2 1032.0 13.5
2015-Aug-28 17:10N 47°05' W 171°39'1 0.2 1032.9 13.1
2015-Aug-28 13:10N 47°06' W 171°39'1 0.9 1033.8 13.2
2015-Aug-28 12:10N 47°06' W 171°40'1 0.2 1034.3 13.2
2015-Aug-28 07:10N 47°05' W 171°41'1 0.4 1034.0 13.2
2015-Aug-28 05:10N 47°05' W 171°40'0 0.4 1033.6 13.2
2015-Aug-28 04:10N 47°05' W 171°40'1 0.6 1033.7 13.3
2015-Aug-28 03:10N 47°05' W 171°39'1 0.7 1033.9 13.2
2015-Aug-28 02:10N 47°05' W 171°40'0 0.3 1033.6 13.2
2015-Aug-28 01:10N 47°05' W 171°40'0 0.3 1033.7 13.1
2015-Aug-28 00:10N 47°05' W 171°39'0 0.0 1033.7 13.1
2015-Aug-27 23:10N 47°05' W 171°39'1 0.5 1033.7 13.0
2015-Aug-27 22:10N 47°05' W 171°39'1 0.6 1034.3 12.9
2015-Aug-27 20:10N 47°05' W 171°40'0 0.0 1034.0 12.8
2015-Aug-27 17:10N 47°05' W 171°40'0 0.1 1033.2 12.8
2015-Aug-27 14:10N 47°05' W 171°40'0 0.4 1032.9 12.8
2015-Aug-27 13:10N 47°04' W 171°40'1 0.1 1033.1 12.8
2015-Aug-27 09:10N 47°04' W 171°39'0 0.5 1032.4 12.8
2015-Aug-27 08:10N 47°05' W 171°40'1 0.2 1032.0 12.8
2015-Aug-27 04:10N 47°05' W 171°39'3 0.7 1031.1 12.8
2015-Aug-27 00:10N 47°02' W 171°40'0 0.0 1031.1 12.8
2015-Aug-26 23:10N 47°02' W 171°40'0 0.1 1031.3 12.7
2015-Aug-26 17:10N 47°03' W 171°40'0 0.2 1029.9 12.6
2015-Aug-26 14:10N 47°03' W 171°40'1 0.1 1029.8 12.7
2015-Aug-26 02:10N 47°02' W 171°41'1 0.3 1028.2 12.7
2015-Aug-25 23:10N 47°01' W 171°40'1 0.3 1028.3 12.5
2015-Aug-25 19:10N 47°02' W 171°42'1 0.5 1027.7 12.4
2015-Aug-25 17:10N 47°01' W 171°42'1 0.1 1026.8 12.4
2015-Aug-25 11:10N 47°01' W 171°41'0 0.1 1027.4 12.4
2015-Aug-25 08:10N 47°01' W 171°41'1 0.1 1028.0 12.5
2015-Aug-25 03:10N 47°01' W 171°40'2 2.5 1026.8 12.5
2015-Aug-25 02:10N 46°59' W 171°43'2 0.1 1027.2 12.5
2015-Aug-24 12:10N 46°59' W 171°40'0 0.0 1028.9 12.3
2015-Aug-24 11:10N 46°59' W 171°40'1 0.1 1028.8 12.3
2015-Aug-24 02:10N 46°58' W 171°41'1 0.1 1029.2 12.3
2015-Aug-23 16:10N 46°58' W 171°43'2 1.0 1030.6 12.2
2015-Aug-23 14:10N 46°57' W 171°41'1 0.3 1031.2 12.2
2015-Aug-23 11:10N 46°57' W 171°40'0 0.1 1031.7 12.3
2015-Aug-23 08:10N 46°57' W 171°40'0 0.2 1031.8 12.3
2015-Aug-23 06:10N 46°57' W 171°40'1 0.6 1031.4 12.3
2015-Aug-23 05:10N 46°57' W 171°40'1 0.2 1031.5 12.3
2015-Aug-22 23:10N 46°56' W 171°39'0 0.1 1032.6 12.3
2015-Aug-22 16:10N 46°56' W 171°40'1 0.5 1032.4 12.3
2015-Aug-22 14:10N 46°56' W 171°41'5 0.8 1032.8 12.3
2015-Aug-22 08:10N 46°57' W 171°34'3 0.3 1033.4 12.3
2015-Aug-22 00:10N 46°55' W 171°37'0 0.0 1032.3 12.3
2015-Aug-21 23:10N 46°55' W 171°37'2 0.3 1032.2 12.3
2015-Aug-21 14:10N 46°55' W 171°34'1 0.1 1029.7 12.3
2015-Aug-21 09:10N 46°55' W 171°33'3 0.2 1028.7 12.4
2015-Aug-20 16:10N 46°57' W 171°28'0 0.0 1021.3 12.3
2015-Aug-20 15:10N 46°57' W 171°28'2 0.3 1021.2 12.3
2015-Aug-20 06:10N 46°59' W 171°30'1 0.7 1020.1 12.3
2015-Aug-20 05:10N 46°59' W 171°29'1 0.1 1019.8 12.3
2015-Aug-19 17:10N 46°58' W 171°30'0 0.4 1017.5 12.0
2015-Aug-19 16:10N 46°58' W 171°30'1 0.3 1016.9 12.0
2015-Aug-19 12:10N 46°58' W 171°32'   1016.1 12.0

Dump ship's entire track history